Meteo Giornale » Osservazioni meteo Italia » Bari-Palese Macchie

ore: 15:50 - Osservazioni Meteo Bari-Palese Macchie
Lat. 41° 8' N Lon. 16° 47' E Alt. 34 metri s.l.m.

sereno Europe/Rome

13 °C

Sereno

Temp. 24 Ore

2 °C

14 °C

Est

7.4 Km/h

Dew point 4 °C

Umidità 54 %

Visibilità  10 Km

Il sole sorge alle ore 06:41

Il sole tramonta alle ore 17:31

Data e Ora Cielo e Fenomeni T °C DP °C Um. % Pres. hPa Vis. km Vento km/h
Oggi h: 15:50 sereno Sereno 13 4 54 1023 10 E 7.4
Oggi h: 15:20 sereno Sereno 13 3 50 1023 10 NE 7.4
Oggi h: 14:20 sereno Sereno 13 4 54 1023 10 NE 7.4
Oggi h: 13:50 sereno Sereno 13 3 50 1024 10 NE 9.3
Oggi h: 13:20 sereno Sereno 14 3 47 1024 10 N/NE 9.3
Oggi h: 12:50 sereno Sereno 13 2 47 1024 10 N 11.1
Oggi h: 12:20 sereno Sereno 13 2 47 1025 10 N 13
Oggi h: 11:50 sereno Sereno 13 2 47 1025 10 N 11.1
Oggi h: 11:20 sereno Sereno 13 2 47 1025 10 N 11.1
Oggi h: 10:50 sereno Sereno 13 2 47 1025 10 N 11.1
Oggi h: 10:20 sereno Sereno 12 2 50 1025 10 N 7.4
Oggi h: 09:50 sereno Sereno 12 3 54 1025 10 N 1.8
Oggi h: 09:20 sereno Sereno 11 2 53 1025 8 N 3.7
Oggi h: 08:50 sereno Sereno 9 2 61 1025 8 N 3.7
Oggi h: 08:20 sereno Sereno 6 0 65 1025 8 S/SO 9.3
Oggi h: 07:50 sereno Sereno 4 -0 75 1025 10 SO 11.1
Oggi h: 07:20 sereno Sereno 2 -1 80 1025 10 SO 13
Oggi h: 06:50 sereno Sereno 2 -1 80 1025 10 SO 11.1
Oggi h: 06:20 sereno Sereno 2 -1 80 1025 10 SO 13
Oggi h: 05:50 sereno Sereno 3 -1 74 1025 10 SO 11.1
Oggi h: 05:20 sereno Sereno 2 -0 86 1025 10 SO 9.3
Oggi h: 04:50 sereno Sereno 2 -0 86 1025 10 SO 7.4
Oggi h: 04:20 sereno Sereno 3 -0 80 1024 10 SO 11.1
Oggi h: 03:50 sereno Sereno 3 -0 80 1025 10 SO 9.3
Oggi h: 03:20 sereno Sereno 3 -1 74 1025 10 S/SO 11.1
Oggi h: 02:50 sereno Sereno 4 -1 69 1025 10 S/SO 11.1
Oggi h: 02:20 sereno Sereno 4 -1 69 1025 10 SO 11.1
Oggi h: 01:50 sereno Sereno 4 -1 69 1026 10 SO 13
Oggi h: 01:20 sereno Sereno 4 -1 69 1026 10 SO 13
Oggi h: 00:50 sereno Sereno 3 -1 74 1026 10 SO 11.1
Oggi h: 00:20 sereno Sereno 4 -1 69 1026 10 O 9.3
Ieri h: 23:50 sereno Sereno 4 -1 69 1026 10 O/SO 9.3
Ieri h: 23:20 sereno Sereno 4 -0 75 1026 10 SO 11.1
Ieri h: 22:50 sereno Sereno 4 0 75 1026 10 SO 7.4
Ieri h: 22:20 sereno Sereno 5 1 75 1026 10 SO 13
Ieri h: 21:50 sereno Sereno 5 2 80 1026 10 SO 13
Ieri h: 21:20 sereno Sereno 5 3 86 1026 10 SO 13
Ieri h: 20:50 sereno Sereno 6 3 81 1026 10 SO 13
Ieri h: 20:20 sereno Sereno 6 3 81 1026 10 SO 11.1
Ieri h: 19:50 sereno Sereno 6 4 86 1026 10 SO 11.1
Ieri h: 19:20 sereno Sereno 7 4 81 1026 10 SO 9.3
Ieri h: 18:50 sereno Sereno 7 4 81 1026 10 S/SO 7.4
Ieri h: 18:20 sereno Sereno 7 4 81 1026 10 N 5.5
Ieri h: 17:50 sereno Sereno 8 4 75 1026 10 N 3.7
Ieri h: 17:20 sereno Sereno 11 3 57 1026 10 N 3.7
Ieri h: 16:50 sereno Sereno 12 2 50 1026 10 N 5.5
Ieri h: 16:20 sereno Sereno 12 4 57 1026 10 E 7.4
Ieri h: 15:50 sereno Sereno 12 4 57 1026 10 E 9.3